Time;durP1;ratioP1;P1;durP2;ratioP2;P2;SDS_P1;SDS_P2;PMS_P1;PMS_P2;Temp;Humidity;BMP_temperature;BMP_pressure;BME280_temperature;BME280_humidity;BME280_pressure;Samples;Min_cycle;Max_cycle;Signal;HPM_P1;HPM_P2
2023/05/14 00:02:25;;;;;;;19.23;13.93;;;;;;;41.19;36.34;101118.03;5012872;28;20428;-81
2023/05/14 00:04:52;;;;;;;18.43;12.83;;;;;;;41.29;36.21;101117.66;5012623;28;20507;-81
2023/05/14 00:07:18;;;;;;;19.40;11.63;;;;;;;40.99;36.45;101118.66;5012674;28;20420;-81
2023/05/14 00:09:44;;;;;;;35.03;12.83;;;;;;;41.11;36.76;101118.81;5011868;28;20425;-80
2023/05/14 00:12:11;;;;;;;21.77;13.20;;;;;;;41.07;36.61;101115.94;5012581;28;20424;-81
2023/05/14 00:14:37;;;;;;;18.07;13.10;;;;;;;41.12;36.38;101106.81;5012517;28;20480;-81
2023/05/14 00:17:03;;;;;;;16.90;12.20;;;;;;;41.14;36.53;101107.28;5014166;28;20425;-81
2023/05/14 00:19:29;;;;;;;23.27;15.03;;;;;;;41.13;36.35;101113.88;5032275;28;20419;-81
2023/05/14 00:21:56;;;;;;;22.50;13.43;;;;;;;41.12;36.66;101116.88;5032122;28;20510;-81
2023/05/14 00:24:22;;;;;;;22.57;12.60;;;;;;;40.99;37.47;101111.31;5015525;28;20482;-81
2023/05/14 00:26:50;;;;;;;18.60;13.17;;;;;;;41.06;37.18;101108.09;5033276;28;20451;-81
2023/05/14 00:29:16;;;;;;;23.93;15.80;;;;;;;41.16;36.54;101096.88;5031974;28;20506;-81
2023/05/14 00:31:44;;;;;;;23.43;13.43;;;;;;;41.16;36.88;101099.59;5031975;28;20793;-81
2023/05/14 00:34:11;;;;;;;22.27;12.50;;;;;;;41.19;36.70;101092.69;5033352;28;20972;-81
2023/05/14 00:36:39;;;;;;;22.20;11.97;;;;;;;41.11;37.11;101071.75;5002584;28;20426;-82
2023/05/14 00:39:05;;;;;;;18.83;11.30;;;;;;;41.21;37.02;101087.75;5012127;28;20416;-81
2023/05/14 00:41:32;;;;;;;23.20;13.13;;;;;;;41.24;37.00;101078.91;4995732;28;20459;-82
2023/05/14 00:43:58;;;;;;;17.20;12.33;;;;;;;41.32;36.70;101078.13;5012460;28;20534;-81
2023/05/14 00:46:25;;;;;;;20.33;12.50;;;;;;;41.27;36.78;101065.47;4995709;28;20471;-82
2023/05/14 00:48:51;;;;;;;22.20;12.20;;;;;;;41.11;37.17;101067.09;5012331;28;20424;-82
2023/05/14 00:51:17;;;;;;;25.53;13.13;;;;;;;41.25;37.18;101075.91;5011839;28;20482;-81
2023/05/14 00:53:45;;;;;;;18.87;10.67;;;;;;;41.24;36.93;101074.28;5011883;28;20470;-82
2023/05/14 00:56:12;;;;;;;18.53;12.20;;;;;;;41.11;37.16;101067.09;5011935;28;20423;-81
2023/05/14 00:58:39;;;;;;;23.33;13.60;;;;;;;41.15;37.24;101089.84;5011690;28;20478;-81
2023/05/14 01:01:05;;;;;;;24.80;11.80;;;;;;;41.06;37.24;101086.31;5011869;28;20495;-81
2023/05/14 01:03:32;;;;;;;22.73;12.90;;;;;;;41.13;37.33;101078.50;5021188;28;20928;-81
2023/05/14 01:06:16;;;;;;;26.03;11.93;;;;;;;41.30;37.32;101086.59;5031315;28;20471;-81
2023/05/14 01:08:54;;;;;;;20.70;12.93;;;;;;;41.30;37.08;101088.50;5031549;28;20434;-82
2023/05/14 01:11:39;;;;;;;22.27;12.70;;;;;;;41.17;37.01;101092.22;5031906;28;20435;-81
2023/05/14 01:14:53;;;;;;;20.80;13.07;;;;;;;40.96;37.17;101092.91;5030850;28;20488;-82
2023/05/14 01:17:21;;;;;;;25.63;12.23;;;;;;;41.03;36.92;101074.16;5030655;28;20428;-81
2023/05/14 01:19:50;;;;;;;19.47;10.93;;;;;;;41.23;36.98;101083.56;5031338;28;20424;-82
2023/05/14 01:22:16;;;;;;;23.37;14.00;;;;;;;41.02;37.20;101069.84;5031171;28;20435;-82
2023/05/14 01:24:42;;;;;;;22.53;11.50;;;;;;;41.12;36.86;101068.69;5013131;28;20420;-81
2023/05/14 01:27:23;;;;;;;21.10;11.30;;;;;;;41.15;37.24;101056.38;5011562;28;20475;-82
2023/05/14 01:30:00;;;;;;;21.23;12.77;;;;;;;41.23;36.77;101052.84;5011478;28;20950;-82
2023/05/14 01:32:27;;;;;;;24.50;13.23;;;;;;;41.21;37.25;101047.72;5011405;28;20545;-81
2023/05/14 01:34:57;;;;;;;17.90;11.90;;;;;;;41.21;36.67;101047.72;5011383;28;20428;-81
2023/05/14 01:37:26;;;;;;;29.37;13.47;;;;;;;41.20;36.90;101048.84;5011244;28;20515;-82
2023/05/14 01:39:53;;;;;;;24.43;12.87;;;;;;;41.27;36.83;101042.91;5011447;28;20428;-82
2023/05/14 01:42:20;;;;;;;19.47;12.10;;;;;;;41.22;36.71;101043.88;5010975;28;20424;-82
2023/05/14 01:44:46;;;;;;;23.37;12.10;;;;;;;41.29;36.54;101044.16;5023830;28;20456;-82
2023/05/14 01:47:12;;;;;;;25.93;13.93;;;;;;;41.15;37.09;101018.28;5030896;28;20547;-81
2023/05/14 01:49:38;;;;;;;22.10;13.30;;;;;;;41.11;37.04;101036.38;5030702;28;20427;-82
2023/05/14 01:52:04;;;;;;;20.50;12.60;;;;;;;41.23;36.76;101040.03;5031039;28;20180;-81
2023/05/14 01:54:30;;;;;;;26.30;13.77;;;;;;;41.19;36.74;101030.94;5030883;28;20991;-81
2023/05/14 01:56:56;;;;;;;19.10;12.60;;;;;;;41.24;36.77;101038.09;5029285;28;20582;-81
2023/05/14 01:59:22;;;;;;;29.00;13.23;;;;;;;41.24;37.04;101049.78;5029733;28;20188;-81
2023/05/14 02:01:48;;;;;;;25.10;12.23;;;;;;;41.30;36.59;101053.13;5031053;28;20641;-82
2023/05/14 02:04:14;;;;;;;20.63;13.80;;;;;;;41.37;36.61;101042.56;5030984;28;20181;-81
2023/05/14 02:06:40;;;;;;;19.43;13.30;;;;;;;41.38;36.78;101040.66;5032184;28;20399;-81
2023/05/14 02:09:06;;;;;;;19.03;12.20;;;;;;;41.36;36.57;101024.63;5031377;28;20420;-81
2023/05/14 02:11:32;;;;;;;23.73;13.50;;;;;;;41.30;37.03;101020.47;5032449;28;20248;-81
2023/05/14 02:13:57;;;;;;;20.27;13.03;;;;;;;41.31;36.81;101016.59;5031632;28;21045;-81
2023/05/14 02:16:23;;;;;;;21.20;12.73;;;;;;;41.34;36.46;101013.28;5030909;28;20254;-81
2023/05/14 02:18:49;;;;;;;25.33;12.07;;;;;;;41.34;36.58;101018.72;5030598;28;20185;-81
2023/05/14 02:21:15;;;;;;;17.03;10.77;;;;;;;41.37;36.62;101014.53;5030722;28;20219;-84
2023/05/14 02:23:41;;;;;;;16.53;9.47;;;;;;;41.40;36.62;101009.25;5030740;28;20185;-84
2023/05/14 02:26:09;;;;;;;20.30;9.10;;;;;;;41.36;36.68;101005.56;5030553;28;20525;-83
2023/05/14 02:28:35;;;;;;;14.80;8.47;;;;;;;41.38;36.74;100997.91;5030686;28;20425;-82
2023/05/14 02:31:01;;;;;;;18.97;9.10;;;;;;;41.37;36.82;101000.94;5030588;28;20439;-81
2023/05/14 02:33:27;;;;;;;16.60;10.83;;;;;;;41.36;36.72;100989.25;5032335;28;20188;-81
2023/05/14 02:35:53;;;;;;;20.07;9.60;;;;;;;41.39;36.31;100982.34;5016031;28;20397;-81
2023/05/14 02:38:19;;;;;;;19.30;9.87;;;;;;;41.45;36.66;100991.94;5014274;28;20517;-81
2023/05/14 02:40:45;;;;;;;21.10;11.50;;;;;;;41.32;36.87;100975.50;5014329;28;20432;-81
2023/05/14 02:43:11;;;;;;;27.17;11.30;;;;;;;41.34;36.92;100964.28;5014471;28;20486;-81
2023/05/14 02:45:37;;;;;;;27.10;11.60;;;;;;;41.33;36.75;100973.56;5013836;28;20220;-80
2023/05/14 02:48:03;;;;;;;33.20;11.93;;;;;;;41.30;37.08;100966.81;5014350;28;20416;-82
2023/05/14 02:50:29;;;;;;;23.07;11.13;;;;;;;41.27;37.25;100970.19;5014250;28;20272;-82
2023/05/14 02:52:55;;;;;;;30.50;13.80;;;;;;;41.21;37.05;100978.88;5014070;28;20455;-82
2023/05/14 02:55:21;;;;;;;20.40;11.60;;;;;;;41.24;37.29;100976.28;5015770;28;20401;-81
2023/05/14 02:57:47;;;;;;;19.37;9.80;;;;;;;41.24;37.37;100981.72;5013976;28;20542;-81
2023/05/14 03:00:13;;;;;;;19.70;11.00;;;;;;;41.27;36.99;100983.00;5013736;28;20539;-80
2023/05/14 03:02:39;;;;;;;20.60;10.67;;;;;;;41.26;37.14;100976.78;5013854;28;20416;-82
2023/05/14 03:05:05;;;;;;;17.70;10.50;;;;;;;41.22;37.22;100970.38;5013810;28;20972;-82
2023/05/14 03:07:31;;;;;;;22.53;11.63;;;;;;;41.16;37.19;100976.34;5018345;28;20454;-82
2023/05/14 03:09:59;;;;;;;24.57;10.47;;;;;;;41.12;37.49;100988.97;5033532;28;20447;-81
2023/05/14 03:12:25;;;;;;;23.00;10.53;;;;;;;41.01;37.30;100983.13;5033377;28;20188;-81
2023/05/14 03:14:51;;;;;;;20.53;11.20;;;;;;;40.90;37.80;100984.56;5033322;28;20475;-81
2023/05/14 03:17:17;;;;;;;17.70;9.60;;;;;;;40.91;37.61;100969.84;5033842;28;20420;-82
2023/05/14 03:19:43;;;;;;;23.33;11.10;;;;;;;41.01;37.37;100989.34;5033250;28;20430;-82
2023/05/14 03:22:09;;;;;;;14.50;10.07;;;;;;;41.11;37.29;100987.38;5033280;28;20451;-81
2023/05/14 03:24:38;;;;;;;25.37;11.50;;;;;;;41.04;37.97;100996.84;5033241;28;20235;-82
2023/05/14 03:27:04;;;;;;;19.23;10.37;;;;;;;41.06;37.45;101004.69;5033253;28;20585;-81
2023/05/14 03:29:30;;;;;;;21.77;11.70;;;;;;;41.03;37.91;101006.16;5033158;28;20429;-81
2023/05/14 03:31:56;;;;;;;20.73;12.03;;;;;;;40.83;37.78;100990.50;5032958;28;20448;-81
2023/05/14 03:34:22;;;;;;;19.67;12.20;;;;;;;40.89;37.86;101005.53;5032837;28;20656;-81
2023/05/14 03:36:48;;;;;;;25.57;12.93;;;;;;;41.00;37.35;101008.69;5033095;28;20414;-81
2023/05/14 03:39:18;;;;;;;20.77;12.97;;;;;;;40.96;37.39;101013.22;5023272;28;20416;-81
2023/05/14 03:41:45;;;;;;;21.53;14.57;;;;;;;40.92;37.58;101031.28;5013081;28;20220;-82
2023/05/14 03:44:12;;;;;;;24.03;14.00;;;;;;;40.95;37.66;101022.50;5023268;28;20478;-81
2023/05/14 03:46:38;;;;;;;23.30;14.50;;;;;;;40.90;37.71;101034.34;5019055;28;20448;-81
2023/05/14 03:49:03;;;;;;;21.20;15.37;;;;;;;40.79;37.88;101036.56;5013345;28;20420;-81
2023/05/14 03:51:30;;;;;;;21.37;12.10;;;;;;;40.81;37.66;101045.19;5013519;28;20209;-81
2023/05/14 03:53:57;;;;;;;23.30;12.90;;;;;;;40.88;37.99;101046.63;5013196;28;20475;-82
2023/05/14 03:56:23;;;;;;;19.43;12.17;;;;;;;40.83;37.68;101044.91;5012960;28;20412;-81
2023/05/14 03:58:49;;;;;;;22.50;16.10;;;;;;;40.88;37.65;101046.63;5013047;28;20470;-81
2023/05/14 04:01:15;;;;;;;18.37;12.10;;;;;;;40.87;37.53;101051.28;5013411;28;20428;-81
2023/05/14 04:03:41;;;;;;;24.83;14.13;;;;;;;40.96;37.63;101059.47;5020028;28;20632;-81
2023/05/14 04:06:07;;;;;;;22.43;15.40;;;;;;;40.91;37.61;101063.16;5032390;28;20581;-81
2023/05/14 04:08:33;;;;;;;21.00;14.80;;;;;;;40.78;37.77;101073.06;5032488;28;20427;-82
2023/05/14 04:10:59;;;;;;;24.10;14.90;;;;;;;40.78;37.89;101075.78;5032115;28;20448;-81
2023/05/14 04:13:25;;;;;;;20.50;11.53;;;;;;;40.92;37.66;101080.28;5032195;28;20274;-81
2023/05/14 04:15:51;;;;;;;21.50;14.27;;;;;;;40.87;37.65;101067.59;5032258;28;20168;-80
2023/05/14 04:18:17;;;;;;;23.67;14.13;;;;;;;40.94;37.60;101073.38;5012776;28;20209;-81
2023/05/14 04:20:43;;;;;;;27.53;16.83;;;;;;;40.92;37.23;101072.09;5012485;28;20565;-81
2023/05/14 04:23:09;;;;;;;20.70;17.87;;;;;;;40.90;37.39;101072.44;5012340;28;20455;-82
2023/05/14 04:25:35;;;;;;;27.23;17.47;;;;;;;40.85;37.66;101069.84;5012168;28;20463;-82
2023/05/14 04:28:00;;;;;;;29.43;17.90;;;;;;;40.81;37.44;101080.56;5012264;28;20217;-81
2023/05/14 04:30:26;;;;;;;26.33;21.40;;;;;;;40.81;37.60;101077.03;5012215;28;20979;-81
2023/05/14 04:32:53;;;;;;;32.13;23.30;;;;;;;40.69;37.56;101080.41;5012090;28;20428;-81
2023/05/14 04:35:19;;;;;;;37.70;24.90;;;;;;;40.74;37.74;101080.25;5012198;28;20452;-82
2023/05/14 04:37:45;;;;;;;27.90;25.10;;;;;;;40.86;37.40;101086.97;5012049;28;21032;-81
2023/05/14 04:40:11;;;;;;;29.90;20.77;;;;;;;40.88;37.37;101092.88;5012112;28;20519;-81
2023/05/14 04:42:37;;;;;;;24.43;18.33;;;;;;;40.66;37.89;101083.78;5018920;28;20177;-82
2023/05/14 04:45:05;;;;;;;24.73;16.83;;;;;;;40.71;37.44;101080.09;5031637;28;20449;-81
2023/05/14 04:47:31;;;;;;;23.77;17.50;;;;;;;40.74;37.78;101096.56;5031721;28;20928;-82
2023/05/14 04:49:57;;;;;;;26.33;14.43;;;;;;;40.85;37.67;101096.25;5031738;28;20435;-81
2023/05/14 04:52:23;;;;;;;26.37;15.40;;;;;;;40.74;37.37;101093.84;5031106;28;20427;-81
2023/05/14 04:54:49;;;;;;;22.47;15.07;;;;;;;40.55;37.48;101083.28;5031838;28;20481;-81
2023/05/14 04:57:15;;;;;;;26.27;15.40;;;;;;;40.62;37.45;101087.44;5014800;28;20423;-81
2023/05/14 04:59:42;;;;;;;21.43;15.10;;;;;;;40.80;37.54;101103.44;5011808;28;20417;-81
2023/05/14 05:02:08;;;;;;;24.47;14.57;;;;;;;40.81;37.26;101098.81;5011828;28;20416;-81
2023/05/14 05:04:33;;;;;;;27.37;15.17;;;;;;;40.84;37.37;101100.91;5011927;28;20446;-81
2023/05/14 05:06:59;;;;;;;21.20;13.57;;;;;;;40.90;37.39;101115.13;5011773;28;20571;-81
2023/05/14 05:09:25;;;;;;;23.00;14.40;;;;;;;40.94;37.18;101121.53;5021715;28;21018;-82
2023/05/14 05:11:51;;;;;;;21.00;15.40;;;;;;;40.74;37.60;101125.69;5031656;28;20181;-81
2023/05/14 05:14:17;;;;;;;21.13;12.57;;;;;;;40.70;37.18;101127.44;5031075;28;20611;-81
2023/05/14 05:16:43;;;;;;;26.73;14.60;;;;;;;40.72;37.40;101127.94;5031505;28;20211;-81
2023/05/14 05:19:09;;;;;;;21.57;13.37;;;;;;;40.75;37.12;101133.53;5031296;28;20563;-81
2023/05/14 05:21:39;;;;;;;23.53;14.67;;;;;;;40.80;37.44;101138.81;5012239;28;20979;-81
2023/05/14 05:24:06;;;;;;;27.33;13.87;;;;;;;40.85;37.30;101143.28;5011638;28;20427;-82
2023/05/14 05:26:35;;;;;;;20.00;12.20;;;;;;;40.63;37.29;101133.34;5011491;28;20853;-82
2023/05/14 05:29:02;;;;;;;25.53;14.57;;;;;;;40.61;37.29;101143.75;5011560;28;20455;-82
2023/05/14 05:31:29;;;;;;;26.10;13.33;;;;;;;40.60;37.47;101149.53;5029293;28;20547;-82
2023/05/14 05:33:55;;;;;;;24.30;13.43;;;;;;;40.51;37.66;101149.50;5031239;28;20909;-81
2023/05/14 05:36:21;;;;;;;27.77;14.47;;;;;;;40.55;37.50;101155.91;5031039;28;20530;-84
2023/05/14 05:38:46;;;;;;;26.80;13.77;;;;;;;40.57;37.57;101150.94;5031107;28;20185;-83
2023/05/14 05:41:13;;;;;;;19.90;14.40;;;;;;;40.51;37.71;101160.38;5023603;28;20454;-83
2023/05/14 05:43:38;;;;;;;24.13;13.90;;;;;;;40.51;37.76;101154.94;5018429;28;20427;-81
2023/05/14 05:46:06;;;;;;;23.27;15.00;;;;;;;40.75;37.28;101157.19;5011225;28;20464;-81
2023/05/14 05:48:32;;;;;;;24.57;13.57;;;;;;;40.79;37.57;101153.53;5011358;28;20181;-82
2023/05/14 05:50:58;;;;;;;16.80;13.63;;;;;;;40.77;37.33;101146.81;5016374;28;20924;-81
2023/05/14 05:53:24;;;;;;;24.57;15.03;;;;;;;40.62;36.88;101118.16;5032626;28;20404;-81
2023/05/14 05:55:50;;;;;;;21.20;14.70;;;;;;;40.85;37.02;101147.94;5019530;28;20434;-80
2023/05/14 05:58:17;;;;;;;27.70;15.40;;;;;;;40.81;37.25;101145.03;5020653;28;20464;-81
2023/05/14 06:00:43;;;;;;;25.73;17.53;;;;;;;40.94;37.06;101160.44;5019048;28;20452;-81
2023/05/14 06:03:10;;;;;;;27.83;17.47;;;;;;;40.86;36.96;101150.31;5020544;28;20465;-81
2023/05/14 06:05:36;;;;;;;29.90;16.83;;;;;;;41.00;36.73;101155.63;5030129;28;20855;-81
2023/05/14 06:08:03;;;;;;;25.30;17.17;;;;;;;40.89;36.52;101159.78;5031718;28;20972;-83
2023/05/14 06:10:29;;;;;;;25.70;17.03;;;;;;;40.91;37.00;101160.28;5034646;28;20201;-81
2023/05/14 06:12:55;;;;;;;29.37;16.40;;;;;;;40.95;36.97;101164.78;5034538;28;20966;-82
2023/05/14 06:15:21;;;;;;;32.50;19.93;;;;;;;41.11;36.88;101178.69;5023610;28;20479;-81
2023/05/14 06:17:47;;;;;;;29.50;21.83;;;;;;;41.15;36.74;101178.84;5016120;28;20448;-81
2023/05/14 06:20:13;;;;;;;26.83;22.10;;;;;;;41.04;36.98;101164.75;5022043;28;20450;-81
2023/05/14 06:22:39;;;;;;;36.40;21.53;;;;;;;41.20;36.91;101195.03;5024023;28;20243;-82
2023/05/14 06:25:05;;;;;;;32.87;22.50;;;;;;;41.26;36.52;101199.97;5024233;28;20436;-82
2023/05/14 06:27:32;;;;;;;32.40;21.97;;;;;;;41.22;36.93;101198.22;5023237;28;20864;-82
2023/05/14 06:29:58;;;;;;;32.57;20.73;;;;;;;41.08;37.08;101212.00;5030026;28;20438;-81
2023/05/14 06:32:23;;;;;;;31.10;21.60;;;;;;;41.03;37.14;101199.34;5034367;28;20872;-83
2023/05/14 06:34:51;;;;;;;32.37;23.50;;;;;;;41.03;37.41;101204.78;5027594;28;20280;-81
2023/05/14 06:37:17;;;;;;;30.63;20.93;;;;;;;41.17;36.90;101212.78;5022565;28;20189;-81
2023/05/14 06:39:48;;;;;;;40.37;23.20;;;;;;;41.09;37.55;101219.03;5033373;28;20427;-81
2023/05/14 06:42:15;;;;;;;32.93;22.57;;;;;;;41.17;37.06;101226.38;5035262;28;20422;-81
2023/05/14 06:44:42;;;;;;;28.60;22.70;;;;;;;41.26;36.98;101223.69;5031565;28;20433;-82
2023/05/14 06:47:08;;;;;;;34.63;25.57;;;;;;;41.20;37.09;101212.16;5014434;28;20888;-81
2023/05/14 06:49:34;;;;;;;28.77;23.87;;;;;;;41.18;37.06;101213.59;5013613;28;20930;-81
2023/05/14 06:52:00;;;;;;;39.30;28.87;;;;;;;41.23;37.06;101216.94;5014001;28;20502;-81
2023/05/14 06:54:27;;;;;;;39.63;27.73;;;;;;;41.13;36.76;101205.56;5014076;28;20813;-82
2023/05/14 06:56:53;;;;;;;36.03;26.80;;;;;;;41.22;37.11;101223.50;5018634;28;20512;-82
2023/05/14 06:59:19;;;;;;;37.73;28.93;;;;;;;41.26;36.82;101235.38;5014009;28;20979;-82
2023/05/14 07:01:45;;;;;;;42.37;28.73;;;;;;;41.40;37.00;101246.13;5013916;28;20811;-83
2023/05/14 07:04:13;;;;;;;38.13;27.23;;;;;;;41.44;36.83;101255.25;5013131;28;20436;-84
2023/05/14 07:06:39;;;;;;;37.73;28.20;;;;;;;41.35;36.98;101243.56;5015822;28;20201;-84
2023/05/14 07:09:05;;;;;;;41.80;28.90;;;;;;;41.46;36.81;101265.81;5033442;28;20419;-82
2023/05/14 07:11:32;;;;;;;45.93;30.10;;;;;;;41.48;37.26;101266.28;5022734;28;20571;-82
2023/05/14 07:13:58;;;;;;;49.03;32.00;;;;;;;41.53;36.95;101264.22;5013526;28;20476;-82
2023/05/14 07:16:25;;;;;;;34.23;27.80;;;;;;;41.58;36.86;101263.25;5029247;28;21020;-81
2023/05/14 07:18:51;;;;;;;43.10;28.90;;;;;;;41.55;37.38;101258.44;5032933;28;20416;-81
2023/05/14 07:21:17;;;;;;;37.20;28.00;;;;;;;41.67;37.08;101269.47;5034691;28;20788;-81
2023/05/14 07:23:43;;;;;;;51.70;28.43;;;;;;;41.55;37.32;101252.97;5033456;28;20431;-82
2023/05/14 07:26:11;;;;;;;32.70;26.33;;;;;;;41.69;36.71;101272.69;5019003;28;20463;-81
2023/05/14 07:28:37;;;;;;;31.60;25.40;;;;;;;41.73;36.55;101270.91;5019379;28;20234;-82
2023/05/14 07:31:07;;;;;;;39.80;26.63;;;;;;;41.61;36.68;101244.31;5032513;28;20991;-82
2023/05/14 07:33:35;;;;;;;39.37;28.00;;;;;;;41.75;36.58;101270.63;5032369;28;20455;-81
2023/05/14 07:36:01;;;;;;;43.13;28.60;;;;;;;41.69;36.78;101259.06;5034337;28;20474;-81
2023/05/14 07:38:27;;;;;;;46.33;29.67;;;;;;;41.82;36.85;101270.94;5023666;28;20440;-82
2023/05/14 07:40:56;;;;;;;38.53;28.93;;;;;;;41.83;36.69;101265.16;5032419;28;20428;-84
2023/05/14 07:43:22;;;;;;;41.23;30.03;;;;;;;41.96;37.12;101271.53;5019290;28;20436;-86
2023/05/14 07:45:48;;;;;;;36.37;24.63;;;;;;;41.98;36.49;101269.28;5016069;28;20517;-84
2023/05/14 07:48:15;;;;;;;32.97;25.43;;;;;;;42.03;36.32;101269.09;5022559;28;20419;-82
2023/05/14 07:50:41;;;;;;;39.50;25.10;;;;;;;42.06;36.32;101267.66;5031771;28;20509;-82
2023/05/14 07:53:08;;;;;;;41.00;21.70;;;;;;;42.13;35.71;101265.22;5031484;28;20432;-82
2023/05/14 07:55:34;;;;;;;29.47;16.73;;;;;;;42.06;35.35;101254.03;5031757;28;20921;-83
2023/05/14 07:58:00;;;;;;;38.20;15.03;;;;;;;41.95;35.70;101236.44;5028030;28;20972;-83
2023/05/14 08:00:27;;;;;;;38.07;12.10;;;;;;;42.07;35.02;101250.19;5033574;28;20424;-82
2023/05/14 08:02:54;;;;;;;28.60;11.10;;;;;;;42.06;34.77;101251.31;5029777;28;20454;-82
2023/05/14 08:05:20;;;;;;;28.40;14.53;;;;;;;42.14;35.38;101258.66;5031712;28;20427;-82
2023/05/14 08:07:46;;;;;;;26.87;16.40;;;;;;;42.18;35.44;101272.47;5031375;28;20473;-83
2023/05/14 08:10:12;;;;;;;27.53;14.33;;;;;;;42.15;35.60;101262.97;5031469;28;20466;-83
2023/05/14 08:12:38;;;;;;;21.17;12.10;;;;;;;42.05;35.70;101264.16;5018536;28;20444;-84
2023/05/14 08:15:06;;;;;;;30.87;14.83;;;;;;;42.20;35.85;101271.00;5015280;28;20471;-82
2023/05/14 08:17:32;;;;;;;25.77;13.50;;;;;;;42.18;35.69;101261.56;5037383;22;20952;-82
2023/05/14 08:19:58;;;;;;;25.53;13.93;;;;;;;42.14;35.99;101264.09;5032653;28;20553;-85
2023/05/14 08:22:24;;;;;;;20.80;10.80;;;;;;;42.19;35.92;101282.25;5034514;28;20588;-85
2023/05/14 08:24:50;;;;;;;18.40;11.67;;;;;;;42.21;36.08;101278.06;5034135;28;20501;-83
2023/05/14 08:27:16;;;;;;;32.50;12.37;;;;;;;42.20;36.20;101275.66;5031833;28;20534;-82
2023/05/14 08:29:42;;;;;;;19.43;10.97;;;;;;;42.24;36.29;101293.78;5031474;28;20442;-85
2023/05/14 08:32:08;;;;;;;19.93;10.73;;;;;;;42.23;36.34;101281.25;5032979;28;20982;-83
2023/05/14 08:34:34;;;;;;;27.07;9.60;;;;;;;42.29;36.24;101284.59;5050374;28;20794;-82
2023/05/14 08:37:00;;;;;;;18.00;12.17;;;;;;;42.29;37.14;101295.50;5034280;28;20949;-84
2023/05/14 08:39:26;;;;;;;22.23;11.43;;;;;;;42.27;36.88;101300.50;5034031;28;20513;-83
2023/05/14 08:41:54;;;;;;;19.40;9.63;;;;;;;42.29;36.63;101304.47;5034129;28;20525;-82
2023/05/14 08:44:50;;;;;;;22.20;10.23;;;;;;;42.36;36.33;101312.19;5033917;28;20426;-82
2023/05/14 08:47:20;;;;;;;15.50;9.20;;;;;;;42.45;36.50;101323.03;5025703;28;20535;-83
2023/05/14 08:49:51;;;;;;;25.23;11.10;;;;;;;42.48;36.27;101320.47;5026086;28;20506;-82
2023/05/14 08:52:21;;;;;;;23.57;10.50;;;;;;;42.47;36.45;101326.22;5030019;28;20426;-82
2023/05/14 08:54:49;;;;;;;18.30;7.57;;;;;;;42.33;36.86;101329.97;5033847;28;20418;-84
2023/05/14 08:57:17;;;;;;;15.50;7.67;;;;;;;42.37;36.59;101330.94;5034299;28;20518;-83
2023/05/14 08:59:43;;;;;;;14.47;7.50;;;;;;;42.43;36.80;101333.47;5034321;28;20426;-83
2023/05/14 09:02:13;;;;;;;22.93;9.23;;;;;;;42.38;36.90;101316.16;5051600;28;20422;-83
2023/05/14 09:04:40;;;;;;;16.90;8.87;;;;;;;42.47;36.65;101334.41;5033752;28;20451;-82
2023/05/14 09:07:06;;;;;;;20.27;8.93;;;;;;;42.47;36.71;101334.41;5033410;28;20989;-82
2023/05/14 09:09:33;;;;;;;26.43;10.10;;;;;;;42.40;37.09;101338.44;5049901;28;20934;-83
2023/05/14 09:12:00;;;;;;;18.50;9.40;;;;;;;42.44;36.84;101338.59;5031705;28;20418;-83
2023/05/14 09:14:26;;;;;;;20.37;10.00;;;;;;;42.44;36.88;101335.09;5033923;28;20426;-82
2023/05/14 09:16:53;;;;;;;19.60;9.47;;;;;;;42.44;37.30;101340.53;5031127;28;20418;-81
2023/05/14 09:19:20;;;;;;;26.67;10.73;;;;;;;42.33;37.15;101329.19;5033646;28;20715;-82
2023/05/14 09:21:47;;;;;;;28.60;11.13;;;;;;;42.38;37.43;101343.44;5050629;28;20437;-81
2023/05/14 09:24:24;;;;;;;19.87;10.10;;;;;;;42.39;37.52;101336.06;5033670;28;20419;-82
2023/05/14 09:26:52;;;;;;;29.67;9.57;;;;;;;42.43;37.47;101328.03;5051858;28;20496;-82
2023/05/14 09:29:18;;;;;;;19.83;9.47;;;;;;;42.53;37.49;101338.56;5033890;28;20438;-82
2023/05/14 09:31:45;;;;;;;15.37;8.77;;;;;;;42.54;37.49;101330.06;5030561;28;21060;-83
2023/05/14 09:34:12;;;;;;;21.43;8.03;;;;;;;42.56;37.50;101329.75;5024557;28;20484;-82
2023/05/14 09:36:38;;;;;;;20.83;10.37;;;;;;;42.62;37.59;101331.97;5033336;28;20414;-83
2023/05/14 09:39:04;;;;;;;18.80;8.60;;;;;;;42.61;37.16;101332.31;5032185;28;20457;-82
2023/05/14 09:41:31;;;;;;;15.83;9.50;;;;;;;42.65;37.43;101338.69;5029771;28;20450;-82
2023/05/14 09:43:57;;;;;;;11.40;7.23;;;;;;;42.63;37.46;101332.78;5028980;28;20510;-83
2023/05/14 09:46:28;;;;;;;22.33;8.93;;;;;;;42.56;37.21;101321.56;5037149;28;20596;-82
2023/05/14 09:48:55;;;;;;;15.83;8.00;;;;;;;42.73;37.53;101326.16;5037859;28;20183;-83
2023/05/14 09:51:21;;;;;;;14.23;8.33;;;;;;;42.77;36.82;101325.16;5037995;28;20446;-83
2023/05/14 09:53:48;;;;;;;15.60;7.03;;;;;;;42.65;36.91;101304.03;5037339;28;20440;-83
2023/05/14 09:56:15;;;;;;;24.80;9.90;;;;;;;42.71;36.70;101326.47;5037456;28;20853;-82
2023/05/14 09:58:41;;;;;;;14.93;7.93;;;;;;;42.63;36.49;101316.41;5037554;28;20454;-83
2023/05/14 10:01:07;;;;;;;16.93;7.00;;;;;;;42.67;36.76;101328.28;5055987;28;20475;-83
2023/05/14 10:03:34;;;;;;;16.20;6.07;;;;;;;42.73;36.85;101321.50;5041028;28;20554;-83
2023/05/14 10:06:04;;;;;;;18.07;5.70;;;;;;;42.82;36.94;101308.59;5027709;28;20454;-83
2023/05/14 10:08:34;;;;;;;19.40;6.17;;;;;;;42.64;36.76;101312.56;5037649;28;20431;-84
2023/05/14 10:11:10;;;;;;;22.23;5.90;;;;;;;42.51;36.92;101300.72;5028295;28;20819;-85
2023/05/14 10:13:46;;;;;;;14.00;6.63;;;;;;;42.68;36.54;101299.06;5018003;28;20478;-83
2023/05/14 10:16:33;;;;;;;9.70;4.93;;;;;;;42.69;37.01;101311.56;5026945;28;20446;-83
2023/05/14 10:19:10;;;;;;;13.03;5.50;;;;;;;42.69;36.66;101311.56;5034425;28;20489;-82
2023/05/14 10:21:39;;;;;;;15.73;4.50;;;;;;;42.61;36.84;101307.78;5036941;28;20426;-83
2023/05/14 10:24:06;;;;;;;13.87;7.10;;;;;;;42.60;37.29;101315.16;5037019;28;20592;-83
2023/05/14 10:26:38;;;;;;;15.03;4.90;;;;;;;42.76;37.05;101318.09;5037053;28;20462;-83
2023/05/14 10:29:09;;;;;;;13.93;6.60;;;;;;;42.80;37.60;101310.88;5031404;28;20454;-85
2023/05/14 10:31:49;;;;;;;12.37;4.73;;;;;;;42.85;37.67;101313.41;5027013;28;20838;-85
2023/05/14 10:34:42;;;;;;;15.90;4.80;;;;;;;42.95;37.56;101295.84;5054681;28;20429;-83
2023/05/14 10:37:14;;;;;;;18.87;7.03;;;;;;;42.94;37.83;101288.78;5036171;28;20453;-82
2023/05/14 10:39:56;;;;;;;20.47;7.70;;;;;;;42.98;37.82;101295.22;5036661;28;20517;-82
2023/05/14 10:42:24;;;;;;;11.47;6.00;;;;;;;43.17;37.28;101298.28;5036893;28;20793;-83
2023/05/14 10:45:00;;;;;;;14.37;4.30;;;;;;;43.22;37.13;101293.75;5036562;28;20896;-82
2023/05/14 10:47:31;;;;;;;16.17;6.40;;;;;;;43.04;36.95;101298.56;5049115;28;20457;-83
2023/05/14 10:49:59;;;;;;;11.77;4.30;;;;;;;43.16;36.87;101288.50;5036312;28;20858;-84
2023/05/14 10:52:25;;;;;;;11.73;3.90;;;;;;;43.15;36.86;101291.53;5036247;28;20411;-84
2023/05/14 10:54:58;;;;;;;12.03;5.30;;;;;;;43.13;37.42;101285.63;5036557;28;20418;-83
2023/05/14 10:57:26;;;;;;;15.70;4.87;;;;;;;42.87;36.76;101269.41;5021307;28;20510;-83
2023/05/14 10:59:55;;;;;;;15.63;5.03;;;;;;;42.79;36.34;101279.25;5036840;28;20461;-83
2023/05/14 11:02:27;;;;;;;16.83;5.53;;;;;;;42.73;36.56;101283.31;5036410;28;20414;-83
2023/05/14 11:05:10;;;;;;;19.90;5.53;;;;;;;42.45;36.77;101243.94;5036464;28;20958;-82
2023/05/14 11:07:38;;;;;;;15.77;5.67;;;;;;;42.73;36.78;101258.75;5025296;28;20465;-82
2023/05/14 11:10:15;;;;;;;20.67;4.87;;;;;;;42.60;37.25;101267.94;5032266;28;20505;-82
2023/05/14 11:12:45;;;;;;;11.57;5.07;;;;;;;42.67;36.42;101273.72;5035359;28;20476;-82
2023/05/14 11:15:15;;;;;;;16.67;5.60;;;;;;;42.91;36.16;101262.97;5050249;28;20419;-82